sensor_id;sensor_type;location;lat;lon;timestamp;P1;durP1;ratioP1;P2;durP2;ratioP2
69502;SDS011;56704;54.242;12.442;2023-06-10T00:00:07;6.70;;;0.87;;
69502;SDS011;56704;54.242;12.442;2023-06-10T00:02:38;6.35;;;1.65;;
69502;SDS011;56704;54.242;12.442;2023-06-10T00:05:05;5.40;;;0.65;;
69502;SDS011;56704;54.242;12.442;2023-06-10T00:07:34;6.68;;;0.70;;
69502;SDS011;56704;54.242;12.442;2023-06-10T00:10:03;5.68;;;0.52;;
69502;SDS011;56704;54.242;12.442;2023-06-10T00:12:32;5.00;;;0.90;;
69502;SDS011;56704;54.242;12.442;2023-06-10T00:15:03;3.38;;;0.52;;
69502;SDS011;56704;54.242;12.442;2023-06-10T00:17:30;5.35;;;0.73;;
69502;SDS011;56704;54.242;12.442;2023-06-10T00:19:57;5.68;;;0.93;;
69502;SDS011;56704;54.242;12.442;2023-06-10T00:22:24;5.95;;;0.82;;
69502;SDS011;56704;54.242;12.442;2023-06-10T00:24:57;4.00;;;0.53;;
69502;SDS011;56704;54.242;12.442;2023-06-10T00:27:24;7.03;;;0.85;;
69502;SDS011;56704;54.242;12.442;2023-06-10T00:29:57;4.20;;;0.50;;
69502;SDS011;56704;54.242;12.442;2023-06-10T00:32:24;2.95;;;0.50;;
69502;SDS011;56704;54.242;12.442;2023-06-10T00:34:51;5.07;;;0.90;;
69502;SDS011;56704;54.242;12.442;2023-06-10T00:37:17;5.73;;;0.70;;
69502;SDS011;56704;54.242;12.442;2023-06-10T00:39:44;5.38;;;0.60;;
69502;SDS011;56704;54.242;12.442;2023-06-10T00:42:11;4.10;;;0.63;;
69502;SDS011;56704;54.242;12.442;2023-06-10T00:44:37;5.88;;;0.60;;
69502;SDS011;56704;54.242;12.442;2023-06-10T00:47:06;6.68;;;0.90;;
69502;SDS011;56704;54.242;12.442;2023-06-10T00:49:33;6.57;;;0.60;;
69502;SDS011;56704;54.242;12.442;2023-06-10T00:52:01;6.63;;;0.70;;
69502;SDS011;56704;54.242;12.442;2023-06-10T00:54:29;6.30;;;0.80;;
69502;SDS011;56704;54.242;12.442;2023-06-10T00:56:56;4.15;;;0.60;;
69502;SDS011;56704;54.242;12.442;2023-06-10T00:59:23;3.88;;;0.68;;
69502;SDS011;56704;54.242;12.442;2023-06-10T01:01:51;6.33;;;0.90;;
69502;SDS011;56704;54.242;12.442;2023-06-10T01:04:19;7.47;;;0.60;;
69502;SDS011;56704;54.242;12.442;2023-06-10T01:06:48;3.05;;;0.60;;
69502;SDS011;56704;54.242;12.442;2023-06-10T01:09:24;5.25;;;0.90;;
69502;SDS011;56704;54.242;12.442;2023-06-10T01:11:59;5.75;;;0.40;;
69502;SDS011;56704;54.242;12.442;2023-06-10T01:14:34;5.17;;;0.50;;
69502;SDS011;56704;54.242;12.442;2023-06-10T01:17:02;4.22;;;0.60;;
69502;SDS011;56704;54.242;12.442;2023-06-10T01:19:32;4.78;;;0.82;;
69502;SDS011;56704;54.242;12.442;2023-06-10T01:22:00;4.10;;;0.45;;
69502;SDS011;56704;54.242;12.442;2023-06-10T01:24:26;7.85;;;1.02;;
69502;SDS011;56704;54.242;12.442;2023-06-10T01:26:53;4.57;;;0.60;;
69502;SDS011;56704;54.242;12.442;2023-06-10T01:29:26;3.15;;;0.50;;
69502;SDS011;56704;54.242;12.442;2023-06-10T01:31:59;3.70;;;0.45;;
69502;SDS011;56704;54.242;12.442;2023-06-10T01:34:32;6.13;;;1.15;;
69502;SDS011;56704;54.242;12.442;2023-06-10T01:37:00;6.13;;;1.15;;
69502;SDS011;56704;54.242;12.442;2023-06-10T01:39:29;4.20;;;0.60;;
69502;SDS011;56704;54.242;12.442;2023-06-10T01:41:58;5.15;;;0.70;;
69502;SDS011;56704;54.242;12.442;2023-06-10T01:44:25;4.00;;;0.50;;
69502;SDS011;56704;54.242;12.442;2023-06-10T01:46:51;5.95;;;0.93;;
69502;SDS011;56704;54.242;12.442;2023-06-10T01:49:18;7.25;;;0.65;;
69502;SDS011;56704;54.242;12.442;2023-06-10T01:51:47;4.17;;;0.60;;
69502;SDS011;56704;54.242;12.442;2023-06-10T01:54:15;3.80;;;0.73;;
69502;SDS011;56704;54.242;12.442;2023-06-10T01:56:42;5.30;;;0.50;;
69502;SDS011;56704;54.242;12.442;2023-06-10T01:59:08;7.28;;;0.57;;
69502;SDS011;56704;54.242;12.442;2023-06-10T02:01:35;5.32;;;0.65;;
69502;SDS011;56704;54.242;12.442;2023-06-10T02:04:02;4.00;;;0.50;;
69502;SDS011;56704;54.242;12.442;2023-06-10T02:06:28;5.55;;;0.65;;
69502;SDS011;56704;54.242;12.442;2023-06-10T02:08:55;7.10;;;0.80;;
69502;SDS011;56704;54.242;12.442;2023-06-10T02:11:23;5.00;;;0.60;;
69502;SDS011;56704;54.242;12.442;2023-06-10T02:13:51;5.53;;;0.55;;
69502;SDS011;56704;54.242;12.442;2023-06-10T02:16:18;3.13;;;0.53;;
69502;SDS011;56704;54.242;12.442;2023-06-10T02:18:46;4.45;;;0.50;;
69502;SDS011;56704;54.242;12.442;2023-06-10T02:21:13;4.00;;;0.43;;
69502;SDS011;56704;54.242;12.442;2023-06-10T02:23:40;7.30;;;0.60;;
69502;SDS011;56704;54.242;12.442;2023-06-10T02:26:06;4.50;;;0.80;;
69502;SDS011;56704;54.242;12.442;2023-06-10T02:28:34;4.00;;;0.53;;
69502;SDS011;56704;54.242;12.442;2023-06-10T02:31:01;7.45;;;0.70;;
69502;SDS011;56704;54.242;12.442;2023-06-10T02:33:27;3.58;;;0.63;;
69502;SDS011;56704;54.242;12.442;2023-06-10T02:35:54;5.43;;;0.77;;
69502;SDS011;56704;54.242;12.442;2023-06-10T02:38:21;3.92;;;0.57;;
69502;SDS011;56704;54.242;12.442;2023-06-10T02:40:48;5.70;;;0.80;;
69502;SDS011;56704;54.242;12.442;2023-06-10T02:43:14;8.20;;;0.75;;
69502;SDS011;56704;54.242;12.442;2023-06-10T02:45:42;5.13;;;0.90;;
69502;SDS011;56704;54.242;12.442;2023-06-10T02:48:09;5.30;;;0.60;;
69502;SDS011;56704;54.242;12.442;2023-06-10T02:50:35;8.43;;;0.70;;
69502;SDS011;56704;54.242;12.442;2023-06-10T02:53:03;7.57;;;0.60;;
69502;SDS011;56704;54.242;12.442;2023-06-10T02:55:30;3.90;;;0.70;;
69502;SDS011;56704;54.242;12.442;2023-06-10T02:57:57;4.93;;;0.93;;
69502;SDS011;56704;54.242;12.442;2023-06-10T03:00:24;7.38;;;0.70;;
69502;SDS011;56704;54.242;12.442;2023-06-10T03:02:52;5.00;;;0.82;;
69502;SDS011;56704;54.242;12.442;2023-06-10T03:05:22;5.00;;;0.80;;
69502;SDS011;56704;54.242;12.442;2023-06-10T03:07:49;4.53;;;0.60;;
69502;SDS011;56704;54.242;12.442;2023-06-10T03:10:15;5.65;;;0.70;;
69502;SDS011;56704;54.242;12.442;2023-06-10T03:12:43;5.82;;;0.73;;
69502;SDS011;56704;54.242;12.442;2023-06-10T03:15:09;6.40;;;0.70;;
69502;SDS011;56704;54.242;12.442;2023-06-10T03:17:36;3.33;;;0.60;;
69502;SDS011;56704;54.242;12.442;2023-06-10T03:20:05;8.65;;;0.75;;
69502;SDS011;56704;54.242;12.442;2023-06-10T03:22:35;6.35;;;0.70;;
69502;SDS011;56704;54.242;12.442;2023-06-10T03:25:03;7.95;;;0.82;;
69502;SDS011;56704;54.242;12.442;2023-06-10T03:27:30;6.07;;;0.80;;
69502;SDS011;56704;54.242;12.442;2023-06-10T03:29:57;6.50;;;0.90;;
69502;SDS011;56704;54.242;12.442;2023-06-10T03:32:24;5.95;;;1.00;;
69502;SDS011;56704;54.242;12.442;2023-06-10T03:34:51;6.55;;;0.90;;
69502;SDS011;56704;54.242;12.442;2023-06-10T03:37:24;5.30;;;0.75;;
69502;SDS011;56704;54.242;12.442;2023-06-10T03:39:51;5.07;;;1.00;;
69502;SDS011;56704;54.242;12.442;2023-06-10T03:42:17;6.43;;;0.80;;
69502;SDS011;56704;54.242;12.442;2023-06-10T03:44:44;4.32;;;0.70;;
69502;SDS011;56704;54.242;12.442;2023-06-10T03:47:11;4.05;;;0.75;;
69502;SDS011;56704;54.242;12.442;2023-06-10T03:49:39;6.65;;;0.98;;
69502;SDS011;56704;54.242;12.442;2023-06-10T03:52:06;7.20;;;0.85;;
69502;SDS011;56704;54.242;12.442;2023-06-10T03:54:34;4.57;;;0.70;;
69502;SDS011;56704;54.242;12.442;2023-06-10T03:57:01;6.38;;;1.17;;
69502;SDS011;56704;54.242;12.442;2023-06-10T03:59:28;4.32;;;0.70;;
69502;SDS011;56704;54.242;12.442;2023-06-10T04:01:55;11.00;;;0.98;;
69502;SDS011;56704;54.242;12.442;2023-06-10T04:04:22;8.63;;;1.00;;
69502;SDS011;56704;54.242;12.442;2023-06-10T04:06:49;7.43;;;1.00;;
69502;SDS011;56704;54.242;12.442;2023-06-10T04:09:16;7.43;;;1.08;;
69502;SDS011;56704;54.242;12.442;2023-06-10T04:11:44;6.15;;;0.90;;
69502;SDS011;56704;54.242;12.442;2023-06-10T04:14:11;8.68;;;1.10;;
69502;SDS011;56704;54.242;12.442;2023-06-10T04:16:38;9.18;;;1.20;;
69502;SDS011;56704;54.242;12.442;2023-06-10T04:19:05;4.80;;;0.97;;
69502;SDS011;56704;54.242;12.442;2023-06-10T04:21:33;6.43;;;1.00;;
69502;SDS011;56704;54.242;12.442;2023-06-10T04:24:01;4.65;;;0.90;;
69502;SDS011;56704;54.242;12.442;2023-06-10T04:26:28;6.30;;;0.82;;
69502;SDS011;56704;54.242;12.442;2023-06-10T04:28:56;6.47;;;0.90;;
69502;SDS011;56704;54.242;12.442;2023-06-10T04:31:22;4.93;;;0.80;;
69502;SDS011;56704;54.242;12.442;2023-06-10T04:33:49;7.70;;;0.95;;
69502;SDS011;56704;54.242;12.442;2023-06-10T04:36:16;5.35;;;1.10;;
69502;SDS011;56704;54.242;12.442;2023-06-10T04:38:42;5.53;;;0.80;;
69502;SDS011;56704;54.242;12.442;2023-06-10T04:41:09;5.88;;;1.10;;
69502;SDS011;56704;54.242;12.442;2023-06-10T04:43:35;5.60;;;1.23;;
69502;SDS011;56704;54.242;12.442;2023-06-10T04:46:04;6.85;;;0.98;;
69502;SDS011;56704;54.242;12.442;2023-06-10T04:48:30;3.80;;;1.15;;
69502;SDS011;56704;54.242;12.442;2023-06-10T04:51:00;5.47;;;0.95;;
69502;SDS011;56704;54.242;12.442;2023-06-10T04:53:26;6.63;;;0.90;;
69502;SDS011;56704;54.242;12.442;2023-06-10T04:55:53;6.23;;;1.07;;
69502;SDS011;56704;54.242;12.442;2023-06-10T04:58:20;7.35;;;1.15;;
69502;SDS011;56704;54.242;12.442;2023-06-10T05:00:46;5.55;;;0.77;;
69502;SDS011;56704;54.242;12.442;2023-06-10T05:03:14;4.63;;;1.17;;
69502;SDS011;56704;54.242;12.442;2023-06-10T05:05:41;9.65;;;1.10;;
69502;SDS011;56704;54.242;12.442;2023-06-10T05:08:08;5.03;;;1.10;;
69502;SDS011;56704;54.242;12.442;2023-06-10T05:10:34;5.90;;;0.88;;
69502;SDS011;56704;54.242;12.442;2023-06-10T05:13:01;10.48;;;1.38;;
69502;SDS011;56704;54.242;12.442;2023-06-10T05:15:28;5.78;;;1.08;;
69502;SDS011;56704;54.242;12.442;2023-06-10T05:17:56;6.75;;;0.90;;
69502;SDS011;56704;54.242;12.442;2023-06-10T05:20:24;6.00;;;1.00;;
69502;SDS011;56704;54.242;12.442;2023-06-10T05:22:53;5.57;;;1.17;;
69502;SDS011;56704;54.242;12.442;2023-06-10T05:25:20;4.38;;;1.10;;
69502;SDS011;56704;54.242;12.442;2023-06-10T05:27:46;6.60;;;1.23;;
69502;SDS011;56704;54.242;12.442;2023-06-10T05:30:13;5.72;;;1.85;;
69502;SDS011;56704;54.242;12.442;2023-06-10T05:32:40;7.97;;;1.20;;
69502;SDS011;56704;54.242;12.442;2023-06-10T05:35:06;6.60;;;1.15;;
69502;SDS011;56704;54.242;12.442;2023-06-10T05:37:34;5.15;;;1.00;;
69502;SDS011;56704;54.242;12.442;2023-06-10T05:40:02;5.88;;;0.95;;
69502;SDS011;56704;54.242;12.442;2023-06-10T05:42:29;8.60;;;1.33;;
69502;SDS011;56704;54.242;12.442;2023-06-10T05:44:56;5.23;;;1.00;;
69502;SDS011;56704;54.242;12.442;2023-06-10T05:47:22;5.30;;;1.17;;
69502;SDS011;56704;54.242;12.442;2023-06-10T05:49:49;6.90;;;1.10;;
69502;SDS011;56704;54.242;12.442;2023-06-10T05:52:16;4.97;;;1.67;;
69502;SDS011;56704;54.242;12.442;2023-06-10T05:54:44;6.18;;;1.30;;
69502;SDS011;56704;54.242;12.442;2023-06-10T05:57:11;4.53;;;1.00;;
69502;SDS011;56704;54.242;12.442;2023-06-10T05:59:38;8.27;;;1.63;;
69502;SDS011;56704;54.242;12.442;2023-06-10T06:02:05;6.60;;;1.20;;
69502;SDS011;56704;54.242;12.442;2023-06-10T06:06:57;9.82;;;1.35;;
69502;SDS011;56704;54.242;12.442;2023-06-10T06:09:23;5.55;;;1.27;;
69502;SDS011;56704;54.242;12.442;2023-06-10T06:11:54;5.73;;;1.27;;
69502;SDS011;56704;54.242;12.442;2023-06-10T06:14:20;9.40;;;1.45;;
69502;SDS011;56704;54.242;12.442;2023-06-10T06:16:47;7.38;;;1.27;;
69502;SDS011;56704;54.242;12.442;2023-06-10T06:19:13;5.68;;;1.30;;
69502;SDS011;56704;54.242;12.442;2023-06-10T06:21:40;5.38;;;1.30;;
69502;SDS011;56704;54.242;12.442;2023-06-10T06:24:07;6.20;;;1.20;;
69502;SDS011;56704;54.242;12.442;2023-06-10T06:26:34;6.85;;;1.27;;
69502;SDS011;56704;54.242;12.442;2023-06-10T06:29:02;6.10;;;1.50;;
69502;SDS011;56704;54.242;12.442;2023-06-10T06:31:28;6.00;;;1.38;;
69502;SDS011;56704;54.242;12.442;2023-06-10T06:33:55;4.40;;;1.10;;
69502;SDS011;56704;54.242;12.442;2023-06-10T06:36:22;8.50;;;1.53;;
69502;SDS011;56704;54.242;12.442;2023-06-10T06:38:49;6.20;;;1.27;;
69502;SDS011;56704;54.242;12.442;2023-06-10T06:41:15;8.07;;;1.50;;
69502;SDS011;56704;54.242;12.442;2023-06-10T06:43:42;7.55;;;1.85;;
69502;SDS011;56704;54.242;12.442;2023-06-10T06:46:10;8.60;;;1.70;;
69502;SDS011;56704;54.242;12.442;2023-06-10T06:48:36;5.30;;;1.20;;
69502;SDS011;56704;54.242;12.442;2023-06-10T06:51:03;6.78;;;1.38;;
69502;SDS011;56704;54.242;12.442;2023-06-10T06:53:30;9.10;;;1.40;;
69502;SDS011;56704;54.242;12.442;2023-06-10T06:55:56;6.35;;;1.30;;
69502;SDS011;56704;54.242;12.442;2023-06-10T06:58:23;5.70;;;1.35;;
69502;SDS011;56704;54.242;12.442;2023-06-10T07:00:49;11.40;;;1.70;;
69502;SDS011;56704;54.242;12.442;2023-06-10T07:03:17;8.02;;;1.58;;
69502;SDS011;56704;54.242;12.442;2023-06-10T07:05:44;6.25;;;1.65;;
69502;SDS011;56704;54.242;12.442;2023-06-10T07:08:11;5.65;;;1.20;;
69502;SDS011;56704;54.242;12.442;2023-06-10T07:10:37;8.10;;;1.70;;
69502;SDS011;56704;54.242;12.442;2023-06-10T07:13:04;6.07;;;1.60;;
69502;SDS011;56704;54.242;12.442;2023-06-10T07:15:30;6.93;;;1.42;;
69502;SDS011;56704;54.242;12.442;2023-06-10T07:17:58;6.82;;;1.77;;
69502;SDS011;56704;54.242;12.442;2023-06-10T07:20:26;4.18;;;1.10;;
69502;SDS011;56704;54.242;12.442;2023-06-10T07:22:53;5.78;;;1.80;;
69502;SDS011;56704;54.242;12.442;2023-06-10T07:25:19;7.27;;;1.77;;
69502;SDS011;56704;54.242;12.442;2023-06-10T07:27:46;8.10;;;1.63;;
69502;SDS011;56704;54.242;12.442;2023-06-10T07:30:13;6.85;;;1.90;;
69502;SDS011;56704;54.242;12.442;2023-06-10T07:32:40;6.57;;;1.60;;
69502;SDS011;56704;54.242;12.442;2023-06-10T07:35:08;7.05;;;1.60;;
69502;SDS011;56704;54.242;12.442;2023-06-10T07:37:37;9.03;;;1.77;;
69502;SDS011;56704;54.242;12.442;2023-06-10T07:40:04;7.65;;;1.90;;
69502;SDS011;56704;54.242;12.442;2023-06-10T07:42:31;7.43;;;2.08;;
69502;SDS011;56704;54.242;12.442;2023-06-10T07:44:58;6.05;;;1.80;;
69502;SDS011;56704;54.242;12.442;2023-06-10T07:47:25;6.85;;;1.88;;
69502;SDS011;56704;54.242;12.442;2023-06-10T07:49:51;6.80;;;2.43;;
69502;SDS011;56704;54.242;12.442;2023-06-10T07:52:18;7.80;;;2.30;;
69502;SDS011;56704;54.242;12.442;2023-06-10T07:54:46;7.07;;;2.20;;
69502;SDS011;56704;54.242;12.442;2023-06-10T07:57:12;6.97;;;1.77;;
69502;SDS011;56704;54.242;12.442;2023-06-10T07:59:39;7.05;;;2.03;;
69502;SDS011;56704;54.242;12.442;2023-06-10T08:02:06;7.43;;;1.83;;
69502;SDS011;56704;54.242;12.442;2023-06-10T08:04:32;7.45;;;2.10;;
69502;SDS011;56704;54.242;12.442;2023-06-10T08:07:00;8.10;;;2.28;;
69502;SDS011;56704;54.242;12.442;2023-06-10T08:09:27;7.03;;;1.90;;
69502;SDS011;56704;54.242;12.442;2023-06-10T08:11:57;9.23;;;2.08;;
69502;SDS011;56704;54.242;12.442;2023-06-10T08:14:24;9.17;;;2.27;;
69502;SDS011;56704;54.242;12.442;2023-06-10T08:16:51;7.10;;;2.10;;
69502;SDS011;56704;54.242;12.442;2023-06-10T08:19:18;9.00;;;2.33;;
69502;SDS011;56704;54.242;12.442;2023-06-10T08:21:48;5.05;;;1.98;;
69502;SDS011;56704;54.242;12.442;2023-06-10T08:24:37;8.90;;;2.38;;
69502;SDS011;56704;54.242;12.442;2023-06-10T08:27:05;7.57;;;1.87;;
69502;SDS011;56704;54.242;12.442;2023-06-10T08:29:32;8.00;;;2.00;;
69502;SDS011;56704;54.242;12.442;2023-06-10T08:31:59;6.78;;;2.30;;
69502;SDS011;56704;54.242;12.442;2023-06-10T08:34:26;7.63;;;1.92;;
69502;SDS011;56704;54.242;12.442;2023-06-10T08:36:52;4.72;;;1.67;;
69502;SDS011;56704;54.242;12.442;2023-06-10T08:39:20;6.13;;;1.90;;
69502;SDS011;56704;54.242;12.442;2023-06-10T08:41:49;6.47;;;1.60;;
69502;SDS011;56704;54.242;12.442;2023-06-10T08:44:27;6.68;;;2.00;;
69502;SDS011;56704;54.242;12.442;2023-06-10T08:46:55;8.65;;;2.17;;
69502;SDS011;56704;54.242;12.442;2023-06-10T08:49:24;7.20;;;1.90;;
69502;SDS011;56704;54.242;12.442;2023-06-10T08:51:56;6.03;;;2.00;;
69502;SDS011;56704;54.242;12.442;2023-06-10T08:54:25;7.28;;;2.42;;
69502;SDS011;56704;54.242;12.442;2023-06-10T08:56:57;7.70;;;2.00;;
69502;SDS011;56704;54.242;12.442;2023-06-10T08:59:25;9.27;;;2.45;;
69502;SDS011;56704;54.242;12.442;2023-06-10T09:01:53;5.10;;;1.50;;
69502;SDS011;56704;54.242;12.442;2023-06-10T09:04:20;8.03;;;2.33;;
69502;SDS011;56704;54.242;12.442;2023-06-10T09:06:47;7.55;;;1.65;;
69502;SDS011;56704;54.242;12.442;2023-06-10T09:09:15;6.57;;;2.17;;
69502;SDS011;56704;54.242;12.442;2023-06-10T09:11:44;7.82;;;2.10;;
69502;SDS011;56704;54.242;12.442;2023-06-10T09:14:10;6.10;;;1.88;;
69502;SDS011;56704;54.242;12.442;2023-06-10T09:16:38;8.13;;;2.00;;
69502;SDS011;56704;54.242;12.442;2023-06-10T09:19:06;5.55;;;1.50;;
69502;SDS011;56704;54.242;12.442;2023-06-10T09:21:34;8.30;;;1.95;;
69502;SDS011;56704;54.242;12.442;2023-06-10T09:24:01;5.82;;;2.10;;
69502;SDS011;56704;54.242;12.442;2023-06-10T09:26:28;5.53;;;2.03;;
69502;SDS011;56704;54.242;12.442;2023-06-10T09:28:57;5.80;;;1.67;;
69502;SDS011;56704;54.242;12.442;2023-06-10T09:31:28;7.72;;;2.13;;
69502;SDS011;56704;54.242;12.442;2023-06-10T09:34:04;6.95;;;2.67;;
69502;SDS011;56704;54.242;12.442;2023-06-10T09:36:35;8.23;;;2.60;;
69502;SDS011;56704;54.242;12.442;2023-06-10T09:39:02;5.70;;;2.00;;
69502;SDS011;56704;54.242;12.442;2023-06-10T09:41:32;9.00;;;1.90;;
69502;SDS011;56704;54.242;12.442;2023-06-10T09:44:00;8.57;;;1.98;;
69502;SDS011;56704;54.242;12.442;2023-06-10T09:46:30;5.95;;;1.70;;
69502;SDS011;56704;54.242;12.442;2023-06-10T09:48:58;8.25;;;1.67;;
69502;SDS011;56704;54.242;12.442;2023-06-10T09:51:26;7.32;;;1.75;;
69502;SDS011;56704;54.242;12.442;2023-06-10T09:53:53;7.17;;;2.07;;
69502;SDS011;56704;54.242;12.442;2023-06-10T09:56:20;5.10;;;1.80;;
69502;SDS011;56704;54.242;12.442;2023-06-10T09:58:49;7.28;;;1.95;;
69502;SDS011;56704;54.242;12.442;2023-06-10T10:01:19;5.20;;;1.60;;
69502;SDS011;56704;54.242;12.442;2023-06-10T10:03:46;8.93;;;2.00;;
69502;SDS011;56704;54.242;12.442;2023-06-10T10:06:14;7.40;;;2.20;;
69502;SDS011;56704;54.242;12.442;2023-06-10T10:08:42;6.85;;;2.00;;
69502;SDS011;56704;54.242;12.442;2023-06-10T10:11:10;7.50;;;1.63;;
69502;SDS011;56704;54.242;12.442;2023-06-10T10:13:36;7.10;;;1.85;;
69502;SDS011;56704;54.242;12.442;2023-06-10T10:16:04;7.63;;;1.83;;
69502;SDS011;56704;54.242;12.442;2023-06-10T10:18:41;5.97;;;1.93;;
69502;SDS011;56704;54.242;12.442;2023-06-10T10:21:12;6.68;;;1.90;;
69502;SDS011;56704;54.242;12.442;2023-06-10T10:23:43;5.60;;;1.85;;
69502;SDS011;56704;54.242;12.442;2023-06-10T10:26:16;7.47;;;1.73;;
69502;SDS011;56704;54.242;12.442;2023-06-10T10:28:45;6.80;;;2.15;;
69502;SDS011;56704;54.242;12.442;2023-06-10T10:31:18;5.33;;;2.00;;
69502;SDS011;56704;54.242;12.442;2023-06-10T10:33:48;9.10;;;1.75;;
69502;SDS011;56704;54.242;12.442;2023-06-10T10:36:21;7.25;;;1.90;;
69502;SDS011;56704;54.242;12.442;2023-06-10T10:38:50;5.97;;;1.80;;
69502;SDS011;56704;54.242;12.442;2023-06-10T10:41:17;5.80;;;1.52;;
69502;SDS011;56704;54.242;12.442;2023-06-10T10:43:46;7.10;;;1.70;;
69502;SDS011;56704;54.242;12.442;2023-06-10T10:46:13;6.85;;;2.05;;
69502;SDS011;56704;54.242;12.442;2023-06-10T10:48:41;8.45;;;1.60;;
69502;SDS011;56704;54.242;12.442;2023-06-10T10:51:09;6.53;;;1.70;;
69502;SDS011;56704;54.242;12.442;2023-06-10T10:53:36;5.80;;;1.83;;
69502;SDS011;56704;54.242;12.442;2023-06-10T10:56:12;6.17;;;1.90;;
69502;SDS011;56704;54.242;12.442;2023-06-10T10:58:39;8.95;;;2.30;;
69502;SDS011;56704;54.242;12.442;2023-06-10T11:01:10;6.63;;;1.70;;
69502;SDS011;56704;54.242;12.442;2023-06-10T11:03:42;8.75;;;2.13;;
69502;SDS011;56704;54.242;12.442;2023-06-10T11:06:11;5.75;;;2.20;;
69502;SDS011;56704;54.242;12.442;2023-06-10T11:08:45;8.03;;;2.13;;
69502;SDS011;56704;54.242;12.442;2023-06-10T11:11:22;7.22;;;2.15;;
69502;SDS011;56704;54.242;12.442;2023-06-10T11:14:06;6.25;;;1.92;;
69502;SDS011;56704;54.242;12.442;2023-06-10T11:16:38;7.22;;;1.80;;
69502;SDS011;56704;54.242;12.442;2023-06-10T11:19:07;7.53;;;2.17;;
69502;SDS011;56704;54.242;12.442;2023-06-10T11:21:37;6.20;;;2.10;;
69502;SDS011;56704;54.242;12.442;2023-06-10T11:24:24;6.30;;;2.13;;
69502;SDS011;56704;54.242;12.442;2023-06-10T11:26:53;7.63;;;2.30;;
69502;SDS011;56704;54.242;12.442;2023-06-10T11:29:21;6.80;;;2.47;;
69502;SDS011;56704;54.242;12.442;2023-06-10T11:31:51;5.80;;;2.20;;
69502;SDS011;56704;54.242;12.442;2023-06-10T11:34:21;7.20;;;2.57;;
69502;SDS011;56704;54.242;12.442;2023-06-10T11:36:50;6.22;;;2.63;;
69502;SDS011;56704;54.242;12.442;2023-06-10T11:39:18;7.82;;;2.60;;
69502;SDS011;56704;54.242;12.442;2023-06-10T11:41:46;7.05;;;2.75;;
69502;SDS011;56704;54.242;12.442;2023-06-10T11:44:16;5.15;;;2.55;;
69502;SDS011;56704;54.242;12.442;2023-06-10T11:46:43;6.50;;;2.70;;
69502;SDS011;56704;54.242;12.442;2023-06-10T11:49:10;6.68;;;2.45;;
69502;SDS011;56704;54.242;12.442;2023-06-10T11:51:38;7.20;;;2.35;;
69502;SDS011;56704;54.242;12.442;2023-06-10T11:54:08;9.38;;;2.33;;
69502;SDS011;56704;54.242;12.442;2023-06-10T11:56:35;8.10;;;2.70;;
69502;SDS011;56704;54.242;12.442;2023-06-10T11:59:02;6.03;;;2.40;;
69502;SDS011;56704;54.242;12.442;2023-06-10T12:01:33;7.20;;;2.70;;
69502;SDS011;56704;54.242;12.442;2023-06-10T12:04:02;6.93;;;2.55;;
69502;SDS011;56704;54.242;12.442;2023-06-10T12:06:37;5.93;;;2.50;;
69502;SDS011;56704;54.242;12.442;2023-06-10T12:09:05;6.88;;;2.55;;
69502;SDS011;56704;54.242;12.442;2023-06-10T12:11:32;6.50;;;2.53;;
69502;SDS011;56704;54.242;12.442;2023-06-10T12:13:59;7.47;;;2.63;;
69502;SDS011;56704;54.242;12.442;2023-06-10T12:16:25;7.85;;;2.50;;
69502;SDS011;56704;54.242;12.442;2023-06-10T12:19:00;4.35;;;2.38;;
69502;SDS011;56704;54.242;12.442;2023-06-10T12:21:28;6.70;;;2.70;;
69502;SDS011;56704;54.242;12.442;2023-06-10T12:24:02;6.80;;;2.30;;
69502;SDS011;56704;54.242;12.442;2023-06-10T12:26:34;8.25;;;2.75;;
69502;SDS011;56704;54.242;12.442;2023-06-10T12:29:02;8.00;;;2.90;;
69502;SDS011;56704;54.242;12.442;2023-06-10T12:31:51;6.68;;;2.30;;
69502;SDS011;56704;54.242;12.442;2023-06-10T12:34:33;5.35;;;2.60;;
69502;SDS011;56704;54.242;12.442;2023-06-10T12:37:02;5.70;;;2.47;;
69502;SDS011;56704;54.242;12.442;2023-06-10T12:39:31;6.18;;;2.38;;
69502;SDS011;56704;54.242;12.442;2023-06-10T12:41:58;10.50;;;2.45;;
69502;SDS011;56704;54.242;12.442;2023-06-10T12:44:30;8.52;;;2.72;;
69502;SDS011;56704;54.242;12.442;2023-06-10T12:46:57;6.20;;;2.15;;
69502;SDS011;56704;54.242;12.442;2023-06-10T12:49:24;4.93;;;2.50;;
69502;SDS011;56704;54.242;12.442;2023-06-10T12:51:52;6.82;;;2.30;;
69502;SDS011;56704;54.242;12.442;2023-06-10T12:54:19;7.95;;;2.33;;
69502;SDS011;56704;54.242;12.442;2023-06-10T12:56:46;5.53;;;2.40;;
69502;SDS011;56704;54.242;12.442;2023-06-10T12:59:12;6.10;;;2.50;;
69502;SDS011;56704;54.242;12.442;2023-06-10T13:01:39;7.40;;;2.60;;
69502;SDS011;56704;54.242;12.442;2023-06-10T13:04:06;10.93;;;2.45;;
69502;SDS011;56704;54.242;12.442;2023-06-10T13:06:33;6.53;;;2.40;;
69502;SDS011;56704;54.242;12.442;2023-06-10T13:09:03;6.43;;;2.38;;
69502;SDS011;56704;54.242;12.442;2023-06-10T13:11:31;6.75;;;2.53;;
69502;SDS011;56704;54.242;12.442;2023-06-10T13:13:58;6.63;;;2.40;;
69502;SDS011;56704;54.242;12.442;2023-06-10T13:16:25;5.55;;;2.60;;
69502;SDS011;56704;54.242;12.442;2023-06-10T13:18:52;6.03;;;2.70;;
69502;SDS011;56704;54.242;12.442;2023-06-10T13:21:19;6.53;;;2.35;;
69502;SDS011;56704;54.242;12.442;2023-06-10T13:23:46;6.07;;;2.45;;
69502;SDS011;56704;54.242;12.442;2023-06-10T13:26:14;5.33;;;2.47;;
69502;SDS011;56704;54.242;12.442;2023-06-10T13:28:42;5.82;;;2.50;;
69502;SDS011;56704;54.242;12.442;2023-06-10T13:31:08;7.70;;;2.45;;
69502;SDS011;56704;54.242;12.442;2023-06-10T13:33:35;5.55;;;2.30;;
69502;SDS011;56704;54.242;12.442;2023-06-10T13:36:02;5.22;;;2.55;;
69502;SDS011;56704;54.242;12.442;2023-06-10T13:38:31;5.70;;;2.40;;
69502;SDS011;56704;54.242;12.442;2023-06-10T13:40:58;5.00;;;2.42;;
69502;SDS011;56704;54.242;12.442;2023-06-10T13:43:25;7.20;;;2.42;;
69502;SDS011;56704;54.242;12.442;2023-06-10T13:45:52;5.90;;;2.33;;
69502;SDS011;56704;54.242;12.442;2023-06-10T13:48:19;8.30;;;2.50;;
69502;SDS011;56704;54.242;12.442;2023-06-10T13:50:46;5.77;;;2.30;;
69502;SDS011;56704;54.242;12.442;2023-06-10T13:53:13;7.55;;;2.47;;
69502;SDS011;56704;54.242;12.442;2023-06-10T13:55:39;7.35;;;2.33;;
69502;SDS011;56704;54.242;12.442;2023-06-10T13:58:07;7.90;;;2.50;;
69502;SDS011;56704;54.242;12.442;2023-06-10T14:00:35;7.20;;;2.25;;
69502;SDS011;56704;54.242;12.442;2023-06-10T14:03:01;6.33;;;2.20;;
69502;SDS011;56704;54.242;12.442;2023-06-10T14:05:29;6.45;;;2.22;;
69502;SDS011;56704;54.242;12.442;2023-06-10T14:07:55;6.97;;;2.40;;
69502;SDS011;56704;54.242;12.442;2023-06-10T14:10:22;7.22;;;2.63;;
69502;SDS011;56704;54.242;12.442;2023-06-10T14:12:49;5.18;;;2.22;;
69502;SDS011;56704;54.242;12.442;2023-06-10T14:15:16;8.77;;;2.40;;
69502;SDS011;56704;54.242;12.442;2023-06-10T14:17:44;4.90;;;2.03;;
69502;SDS011;56704;54.242;12.442;2023-06-10T14:20:11;5.90;;;2.33;;
69502;SDS011;56704;54.242;12.442;2023-06-10T14:22:39;7.50;;;2.40;;
69502;SDS011;56704;54.242;12.442;2023-06-10T14:25:06;7.47;;;2.28;;
69502;SDS011;56704;54.242;12.442;2023-06-10T14:27:33;5.97;;;2.27;;
69502;SDS011;56704;54.242;12.442;2023-06-10T14:30:00;5.68;;;2.47;;
69502;SDS011;56704;54.242;12.442;2023-06-10T14:32:28;9.98;;;2.28;;
69502;SDS011;56704;54.242;12.442;2023-06-10T14:34:56;10.57;;;2.50;;
69502;SDS011;56704;54.242;12.442;2023-06-10T14:37:22;6.20;;;2.10;;
69502;SDS011;56704;54.242;12.442;2023-06-10T14:39:49;5.43;;;2.23;;